Terminal Aerodrome Forecast
Issued by NWS

Home | Current Version | Previous Version | Text Only | Print | Product List | Glossary Off
Versions: 1 2 3 4 5 6 7 8 9 10 11 12 13 14 15 16 17 18 19 20 21 22 23 24

811
FTUS45 KGGW 141134
TAFOLF
TAF
KOLF 141134Z 1412/1512 25010KT P6SM VCSH SCT050 OVC090
      WS020/32040KT
     FM141700 32008KT P6SM VCSH OVC050
     FM142100 34010KT P6SM SCT100
     FM142300 33006KT P6SM FEW045 SCT250=

USA.gov is the U.S. government's official web portal to all federal, state and local government web resources and services.